Terminal Aerodrome Forecast
Issued by NWS Huntsville, AL

Home | Current Version | Previous Version | Text Only | Print | Product List | Glossary On
Versions: 1 2 3 4 5 6 7 8 9 10 11 12 13 14 15 16 17 18 19 20 21 22 23 24
000
FTUS44 KHUN 281725
TAFHSV
TAF
KHSV 281725Z 2818/2918 16009KT P6SM VCSH BKN050 BKN150
     FM282300 14005KT P6SM SCT060 OVC130
     FM290500 VRB03KT P6SM SCT150
     FM291400 30005KT P6SM SCT200=

USA.gov is the U.S. government's official web portal to all federal, state and local government web resources and services.